N6995C KCRQ-KBLH
Flight info
| Callsign | N6995C |
|---|---|
| Flight time | 1h 11m |
| Altitude | 7500 |
| Route | KCRQ JLI TRM KBLH |
| Aircraft | P28R/L-VGD/C |
Departure
| Time | 2026-04-23 22:24 |
|---|---|
| Airport | McClellan-Palomar Airport (KCRQ) |
Arrival
| Time | 2026-04-23 23:35 |
|---|---|
| Airport | Blythe Airport (KBLH) |
| Time | Latitude | Longitude | Altitude | Speed | Heading |
|---|---|---|---|---|---|
| 2026-04-23 22:06 | 33.12767 | -117.27385 | 308 ft | 0 kts | 79° |
| 2026-04-23 22:16 | 33.12774 | -117.27373 | 309 ft | 4 kts | 18° |
| 2026-04-23 22:17 | 33.12797 | -117.27361 | 310 ft | 4 kts | 64° |
| 2026-04-23 22:17 | 33.12808 | -117.27316 | 308 ft | 7 kts | 60° |
| 2026-04-23 22:17 | 33.12830 | -117.27245 | 304 ft | 12 kts | 79° |
| 2026-04-23 22:17 | 33.12846 | -117.27211 | 302 ft | 0 kts | 338° |
| 2026-04-23 22:21 | 33.12847 | -117.27212 | 302 ft | 1 kts | 339° |
| 2026-04-23 22:21 | 33.12871 | -117.27222 | 305 ft | 3 kts | 346° |
| 2026-04-23 22:21 | 33.12873 | -117.27222 | 306 ft | 0 kts | 346° |
| 2026-04-23 22:23 | 33.12913 | -117.27227 | 307 ft | 12 kts | 354° |
| 2026-04-23 22:23 | 33.12933 | -117.27331 | 314 ft | 31 kts | 261° |
| 2026-04-23 22:23 | 33.12864 | -117.27790 | 323 ft | 74 kts | 259° |
| 2026-04-23 22:23 | 33.12773 | -117.28369 | 543 ft | 73 kts | 258° |
| 2026-04-23 22:24 | 33.12658 | -117.28964 | 769 ft | 74 kts | 252° |
| 2026-04-23 22:24 | 33.12519 | -117.29572 | 1001 ft | 75 kts | 254° |
| 2026-04-23 22:24 | 33.12448 | -117.30168 | 1160 ft | 81 kts | 280° |
| 2026-04-23 22:24 | 33.12828 | -117.30642 | 1332 ft | 87 kts | 347° |
| 2026-04-23 22:25 | 33.13419 | -117.30642 | 1581 ft | 78 kts | 3° |
| 2026-04-23 22:25 | 33.13917 | -117.30248 | 1646 ft | 93 kts | 61° |
| 2026-04-23 22:25 | 33.14096 | -117.29582 | 1882 ft | 84 kts | 77° |
| 2026-04-23 22:25 | 33.14227 | -117.28865 | 2025 ft | 87 kts | 79° |
| 2026-04-23 22:26 | 33.14481 | -117.28203 | 2195 ft | 87 kts | 49° |
| 2026-04-23 22:26 | 33.14902 | -117.27705 | 2361 ft | 88 kts | 43° |
| 2026-04-23 22:26 | 33.15341 | -117.27209 | 2546 ft | 86 kts | 47° |
| 2026-04-23 22:26 | 33.15645 | -117.26584 | 2686 ft | 89 kts | 80° |
| 2026-04-23 22:27 | 33.15645 | -117.25865 | 2894 ft | 83 kts | 92° |
| 2026-04-23 22:27 | 33.15609 | -117.25147 | 3017 ft | 89 kts | 99° |
| 2026-04-23 22:27 | 33.15530 | -117.24445 | 3224 ft | 86 kts | 99° |
| 2026-04-23 22:27 | 33.15443 | -117.23730 | 3404 ft | 85 kts | 94° |
| 2026-04-23 22:28 | 33.15430 | -117.23006 | 3550 ft | 89 kts | 91° |
| 2026-04-23 22:28 | 33.15412 | -117.22295 | 3737 ft | 88 kts | 93° |
| 2026-04-23 22:28 | 33.15398 | -117.21503 | 3824 ft | 98 kts | 90° |
| 2026-04-23 22:28 | 33.15390 | -117.20674 | 3965 ft | 101 kts | 93° |
| 2026-04-23 22:29 | 33.15365 | -117.19805 | 4079 ft | 106 kts | 91° |
| 2026-04-23 22:29 | 33.15375 | -117.18941 | 4278 ft | 102 kts | 88° |
| 2026-04-23 22:29 | 33.15425 | -117.18076 | 4378 ft | 107 kts | 86° |
| 2026-04-23 22:29 | 33.15478 | -117.17217 | 4592 ft | 102 kts | 86° |
| 2026-04-23 22:30 | 33.15514 | -117.16344 | 4695 ft | 106 kts | 89° |
| 2026-04-23 22:30 | 33.15527 | -117.15489 | 4869 ft | 104 kts | 89° |
| 2026-04-23 22:30 | 33.15533 | -117.14602 | 4999 ft | 105 kts | 92° |
| 2026-04-23 22:30 | 33.15522 | -117.13741 | 5147 ft | 105 kts | 92° |
| 2026-04-23 22:31 | 33.15507 | -117.12855 | 5289 ft | 105 kts | 92° |
| 2026-04-23 22:31 | 33.15500 | -117.11992 | 5423 ft | 106 kts | 92° |
| 2026-04-23 22:31 | 33.15481 | -117.11109 | 5574 ft | 105 kts | 94° |
| 2026-04-23 22:31 | 33.15466 | -117.10234 | 5729 ft | 106 kts | 90° |
| 2026-04-23 22:32 | 33.15473 | -117.09369 | 5873 ft | 105 kts | 90° |
| 2026-04-23 22:32 | 33.15466 | -117.08467 | 6006 ft | 107 kts | 92° |
| 2026-04-23 22:32 | 33.15456 | -117.07598 | 6176 ft | 106 kts | 92° |
| 2026-04-23 22:32 | 33.15443 | -117.06707 | 6324 ft | 107 kts | 93° |
| 2026-04-23 22:33 | 33.15415 | -117.05821 | 6479 ft | 107 kts | 93° |
| 2026-04-23 22:33 | 33.15395 | -117.04929 | 6629 ft | 107 kts | 92° |
| 2026-04-23 22:33 | 33.15375 | -117.04040 | 6774 ft | 108 kts | 93° |
| 2026-04-23 22:33 | 33.15336 | -117.03147 | 6926 ft | 107 kts | 95° |
| 2026-04-23 22:34 | 33.15288 | -117.02254 | 7073 ft | 108 kts | 95° |
| 2026-04-23 22:34 | 33.15247 | -117.01359 | 7210 ft | 109 kts | 94° |
| 2026-04-23 22:34 | 33.15213 | -117.00460 | 7349 ft | 109 kts | 96° |
| 2026-04-23 22:34 | 33.15139 | -116.99547 | 7484 ft | 109 kts | 97° |
| 2026-04-23 22:35 | 33.15105 | -116.98617 | 7497 ft | 119 kts | 92° |
| 2026-04-23 22:35 | 33.15093 | -116.97618 | 7526 ft | 122 kts | 92° |
| 2026-04-23 22:35 | 33.15094 | -116.96601 | 7556 ft | 123 kts | 91° |
| 2026-04-23 22:35 | 33.15105 | -116.95551 | 7527 ft | 128 kts | 91° |
| 2026-04-23 22:36 | 33.15120 | -116.94487 | 7537 ft | 129 kts | 90° |
| 2026-04-23 22:36 | 33.15123 | -116.93412 | 7540 ft | 129 kts | 91° |
| 2026-04-23 22:36 | 33.15123 | -116.92336 | 7521 ft | 131 kts | 92° |
| 2026-04-23 22:36 | 33.15107 | -116.91233 | 7533 ft | 130 kts | 92° |
| 2026-04-23 22:37 | 33.15093 | -116.90157 | 7532 ft | 131 kts | 93° |
| 2026-04-23 22:37 | 33.15066 | -116.89075 | 7528 ft | 131 kts | 93° |
| 2026-04-23 22:37 | 33.15039 | -116.87983 | 7536 ft | 131 kts | 95° |
| 2026-04-23 22:37 | 33.14983 | -116.86900 | 7527 ft | 131 kts | 94° |
| 2026-04-23 22:38 | 33.14946 | -116.85805 | 7524 ft | 132 kts | 94° |
| 2026-04-23 22:38 | 33.14904 | -116.84708 | 7508 ft | 132 kts | 94° |
| 2026-04-23 22:38 | 33.14856 | -116.83604 | 7505 ft | 132 kts | 95° |
| 2026-04-23 22:38 | 33.14796 | -116.82515 | 7514 ft | 131 kts | 95° |
| 2026-04-23 22:39 | 33.14755 | -116.81419 | 7485 ft | 133 kts | 94° |
| 2026-04-23 22:39 | 33.14731 | -116.80312 | 7499 ft | 132 kts | 92° |
| 2026-04-23 22:39 | 33.14719 | -116.79221 | 7488 ft | 133 kts | 92° |
| 2026-04-23 22:39 | 33.14707 | -116.78121 | 7483 ft | 132 kts | 92° |
| 2026-04-23 22:40 | 33.14691 | -116.77017 | 7482 ft | 132 kts | 92° |
| 2026-04-23 22:40 | 33.14674 | -116.75919 | 7479 ft | 132 kts | 92° |
| 2026-04-23 22:40 | 33.14695 | -116.73739 | 7474 ft | 133 kts | 91° |
| 2026-04-23 22:41 | 33.14660 | -116.72644 | 7494 ft | 131 kts | 95° |
| 2026-04-23 22:41 | 33.14624 | -116.71542 | 7475 ft | 133 kts | 92° |
| 2026-04-23 22:41 | 33.14600 | -116.70457 | 7483 ft | 132 kts | 93° |
| 2026-04-23 22:41 | 33.14593 | -116.69363 | 7480 ft | 132 kts | 90° |
| 2026-04-23 22:42 | 33.14651 | -116.68263 | 7481 ft | 132 kts | 86° |
| 2026-04-23 22:42 | 33.14703 | -116.67163 | 7478 ft | 132 kts | 91° |
| 2026-04-23 22:42 | 33.14684 | -116.66072 | 7485 ft | 131 kts | 93° |
| 2026-04-23 22:42 | 33.14653 | -116.64989 | 7505 ft | 130 kts | 96° |
| 2026-04-23 22:43 | 33.14558 | -116.63915 | 7515 ft | 129 kts | 97° |
| 2026-04-23 22:43 | 33.14472 | -116.62846 | 7513 ft | 130 kts | 96° |
| 2026-04-23 22:43 | 33.14405 | -116.61759 | 7518 ft | 130 kts | 95° |
| 2026-04-23 22:43 | 33.14341 | -116.60685 | 7512 ft | 131 kts | 94° |
| 2026-04-23 22:44 | 33.14333 | -116.59589 | 7507 ft | 132 kts | 82° |
| 2026-04-23 22:44 | 33.14819 | -116.58680 | 7498 ft | 133 kts | 37° |
| 2026-04-23 22:44 | 33.15551 | -116.58023 | 7505 ft | 133 kts | 41° |
| 2026-04-23 22:44 | 33.16249 | -116.57285 | 7499 ft | 134 kts | 41° |
| 2026-04-23 22:45 | 33.16949 | -116.56558 | 7525 ft | 132 kts | 41° |
| 2026-04-23 22:45 | 33.17656 | -116.55850 | 7514 ft | 134 kts | 40° |
| 2026-04-23 22:45 | 33.18386 | -116.55149 | 7531 ft | 133 kts | 38° |
| 2026-04-23 22:45 | 33.19102 | -116.54454 | 7521 ft | 134 kts | 39° |
| 2026-04-23 22:46 | 33.19836 | -116.53764 | 7532 ft | 133 kts | 38° |
| 2026-04-23 22:46 | 33.20573 | -116.53104 | 7539 ft | 133 kts | 37° |
| 2026-04-23 22:46 | 33.21327 | -116.52434 | 7520 ft | 135 kts | 37° |
| 2026-04-23 22:46 | 33.22073 | -116.51769 | 7517 ft | 135 kts | 37° |
| 2026-04-23 22:47 | 33.22832 | -116.51099 | 7501 ft | 136 kts | 36° |
| 2026-04-23 22:47 | 33.23602 | -116.50462 | 7512 ft | 134 kts | 35° |
| 2026-04-23 22:47 | 33.24366 | -116.49801 | 7491 ft | 136 kts | 36° |
| 2026-04-23 22:47 | 33.25122 | -116.49154 | 7531 ft | 132 kts | 38° |
| 2026-04-23 22:48 | 33.25851 | -116.48466 | 7475 ft | 136 kts | 38° |
| 2026-04-23 22:48 | 33.26614 | -116.47813 | 7518 ft | 132 kts | 34° |
| 2026-04-23 22:48 | 33.27368 | -116.47155 | 7475 ft | 135 kts | 39° |
| 2026-04-23 22:48 | 33.28094 | -116.46457 | 7474 ft | 134 kts | 38° |
| 2026-04-23 22:49 | 33.28857 | -116.45806 | 7476 ft | 134 kts | 38° |
| 2026-04-23 22:49 | 33.29565 | -116.45097 | 7490 ft | 133 kts | 40° |
| 2026-04-23 22:49 | 33.30293 | -116.44410 | 7476 ft | 134 kts | 37° |
| 2026-04-23 22:49 | 33.31034 | -116.43751 | 7493 ft | 132 kts | 37° |
| 2026-04-23 22:50 | 33.31778 | -116.43086 | 7482 ft | 133 kts | 37° |
| 2026-04-23 22:50 | 33.32523 | -116.42426 | 7500 ft | 132 kts | 36° |
| 2026-04-23 22:50 | 33.33271 | -116.41780 | 7500 ft | 133 kts | 37° |
| 2026-04-23 22:50 | 33.34013 | -116.41128 | 7500 ft | 133 kts | 37° |
| 2026-04-23 22:51 | 33.34774 | -116.40498 | 7499 ft | 133 kts | 30° |
| 2026-04-23 22:51 | 33.35554 | -116.39916 | 7499 ft | 133 kts | 36° |
| 2026-04-23 22:51 | 33.36314 | -116.39277 | 7499 ft | 133 kts | 33° |
| 2026-04-23 22:51 | 33.37071 | -116.38650 | 7500 ft | 133 kts | 36° |
| 2026-04-23 22:52 | 33.37810 | -116.37983 | 7499 ft | 133 kts | 38° |
| 2026-04-23 22:52 | 33.38548 | -116.37316 | 7500 ft | 133 kts | 37° |
| 2026-04-23 22:52 | 33.39288 | -116.36653 | 7500 ft | 133 kts | 37° |
| 2026-04-23 22:52 | 33.40032 | -116.35991 | 7499 ft | 133 kts | 37° |
| 2026-04-23 22:53 | 33.40775 | -116.35335 | 7499 ft | 133 kts | 37° |
| 2026-04-23 22:53 | 33.41494 | -116.34701 | 7499 ft | 133 kts | 37° |
| 2026-04-23 22:53 | 33.42233 | -116.34052 | 7499 ft | 133 kts | 37° |
| 2026-04-23 22:53 | 33.42983 | -116.33394 | 7499 ft | 133 kts | 37° |
| 2026-04-23 22:54 | 33.43727 | -116.32740 | 7500 ft | 133 kts | 37° |
| 2026-04-23 22:54 | 33.44470 | -116.32090 | 7500 ft | 133 kts | 37° |
| 2026-04-23 22:54 | 33.45219 | -116.31435 | 7499 ft | 133 kts | 37° |
| 2026-04-23 22:54 | 33.45963 | -116.30783 | 7500 ft | 132 kts | 37° |
| 2026-04-23 22:55 | 33.46708 | -116.30131 | 7501 ft | 132 kts | 37° |
| 2026-04-23 22:55 | 33.47452 | -116.29479 | 7501 ft | 132 kts | 37° |
| 2026-04-23 22:55 | 33.48199 | -116.28825 | 7499 ft | 133 kts | 37° |
| 2026-04-23 22:55 | 33.48938 | -116.28179 | 7499 ft | 132 kts | 37° |
| 2026-04-23 22:56 | 33.49678 | -116.27531 | 7500 ft | 132 kts | 37° |
| 2026-04-23 22:56 | 33.50422 | -116.26879 | 7500 ft | 132 kts | 37° |
| 2026-04-23 22:56 | 33.51176 | -116.26218 | 7499 ft | 132 kts | 37° |
| 2026-04-23 22:56 | 33.51912 | -116.25573 | 7500 ft | 132 kts | 37° |
| 2026-04-23 22:57 | 33.52657 | -116.24920 | 7500 ft | 132 kts | 37° |
| 2026-04-23 22:57 | 33.53401 | -116.24268 | 7500 ft | 132 kts | 37° |
| 2026-04-23 22:57 | 33.54142 | -116.23618 | 7500 ft | 132 kts | 37° |
| 2026-04-23 22:57 | 33.54894 | -116.22960 | 7500 ft | 132 kts | 38° |
| 2026-04-23 22:58 | 33.55635 | -116.22311 | 7499 ft | 133 kts | 38° |
| 2026-04-23 22:58 | 33.56373 | -116.21662 | 7499 ft | 133 kts | 38° |
| 2026-04-23 22:58 | 33.57123 | -116.21004 | 7500 ft | 133 kts | 38° |
| 2026-04-23 22:58 | 33.57867 | -116.20350 | 7500 ft | 133 kts | 38° |
| 2026-04-23 22:59 | 33.58609 | -116.19698 | 7500 ft | 133 kts | 38° |
| 2026-04-23 22:59 | 33.59356 | -116.19041 | 7500 ft | 133 kts | 38° |
| 2026-04-23 22:59 | 33.60098 | -116.18389 | 7500 ft | 132 kts | 38° |
| 2026-04-23 22:59 | 33.60841 | -116.17737 | 7500 ft | 132 kts | 38° |
| 2026-04-23 23:00 | 33.61583 | -116.17084 | 7499 ft | 132 kts | 38° |
| 2026-04-23 23:00 | 33.62279 | -116.16369 | 7490 ft | 132 kts | 58° |
| 2026-04-23 23:00 | 33.62517 | -116.15330 | 7501 ft | 129 kts | 84° |
| 2026-04-23 23:00 | 33.62611 | -116.14266 | 7497 ft | 129 kts | 87° |
| 2026-04-23 23:01 | 33.62669 | -116.13191 | 7493 ft | 129 kts | 88° |
| 2026-04-23 23:01 | 33.62709 | -116.12111 | 7490 ft | 129 kts | 89° |
| 2026-04-23 23:01 | 33.62735 | -116.11033 | 7486 ft | 129 kts | 90° |
| 2026-04-23 23:01 | 33.62755 | -116.09940 | 7483 ft | 129 kts | 90° |
| 2026-04-23 23:02 | 33.62767 | -116.08863 | 7479 ft | 129 kts | 91° |
| 2026-04-23 23:02 | 33.62775 | -116.07792 | 7475 ft | 129 kts | 91° |
| 2026-04-23 23:02 | 33.62780 | -116.06703 | 7473 ft | 129 kts | 91° |
| 2026-04-23 23:02 | 33.62783 | -116.05637 | 7470 ft | 129 kts | 91° |
| 2026-04-23 23:03 | 33.62785 | -116.04558 | 7466 ft | 129 kts | 91° |
| 2026-04-23 23:03 | 33.62785 | -116.03481 | 7462 ft | 129 kts | 91° |
| 2026-04-23 23:03 | 33.62786 | -116.02409 | 7459 ft | 129 kts | 91° |
| 2026-04-23 23:03 | 33.62785 | -116.01324 | 7456 ft | 129 kts | 91° |
| 2026-04-23 23:04 | 33.62783 | -116.00252 | 7452 ft | 129 kts | 91° |
| 2026-04-23 23:04 | 33.62782 | -115.99166 | 7450 ft | 129 kts | 91° |
| 2026-04-23 23:04 | 33.62780 | -115.98103 | 7446 ft | 129 kts | 91° |
| 2026-04-23 23:04 | 33.62779 | -115.97020 | 7444 ft | 129 kts | 91° |
| 2026-04-23 23:05 | 33.62777 | -115.95930 | 7441 ft | 130 kts | 91° |
| 2026-04-23 23:05 | 33.62774 | -115.94849 | 7438 ft | 130 kts | 91° |
| 2026-04-23 23:05 | 33.62772 | -115.93758 | 7434 ft | 131 kts | 91° |
| 2026-04-23 23:05 | 33.62770 | -115.92660 | 7430 ft | 131 kts | 91° |
| 2026-04-23 23:06 | 33.62767 | -115.91567 | 7427 ft | 131 kts | 91° |
| 2026-04-23 23:06 | 33.62765 | -115.90473 | 7426 ft | 131 kts | 91° |
| 2026-04-23 23:06 | 33.62762 | -115.89386 | 7426 ft | 130 kts | 91° |
| 2026-04-23 23:06 | 33.62759 | -115.88300 | 7427 ft | 131 kts | 91° |
| 2026-04-23 23:07 | 33.62756 | -115.87210 | 7428 ft | 131 kts | 91° |
| 2026-04-23 23:07 | 33.62753 | -115.86111 | 7426 ft | 131 kts | 91° |
| 2026-04-23 23:07 | 33.62750 | -115.85009 | 7426 ft | 132 kts | 91° |
| 2026-04-23 23:07 | 33.62748 | -115.83908 | 7427 ft | 132 kts | 91° |
| 2026-04-23 23:08 | 33.62744 | -115.82809 | 7426 ft | 132 kts | 91° |
| 2026-04-23 23:08 | 33.62740 | -115.81705 | 7426 ft | 132 kts | 91° |
| 2026-04-23 23:08 | 33.62736 | -115.80608 | 7426 ft | 132 kts | 91° |
| 2026-04-23 23:08 | 33.62733 | -115.79504 | 7426 ft | 132 kts | 91° |
| 2026-04-23 23:09 | 33.62729 | -115.78396 | 7426 ft | 132 kts | 91° |
| 2026-04-23 23:09 | 33.62725 | -115.77302 | 7426 ft | 132 kts | 91° |
| 2026-04-23 23:09 | 33.62721 | -115.76196 | 7427 ft | 132 kts | 91° |
| 2026-04-23 23:09 | 33.62717 | -115.75097 | 7426 ft | 132 kts | 91° |
| 2026-04-23 23:10 | 33.62713 | -115.73998 | 7426 ft | 132 kts | 91° |
| 2026-04-23 23:10 | 33.62709 | -115.72895 | 7426 ft | 131 kts | 91° |
| 2026-04-23 23:10 | 33.62705 | -115.71791 | 7426 ft | 131 kts | 91° |
| 2026-04-23 23:10 | 33.62701 | -115.70707 | 7426 ft | 131 kts | 91° |
| 2026-04-23 23:11 | 33.62696 | -115.69604 | 7427 ft | 131 kts | 91° |
| 2026-04-23 23:11 | 33.62692 | -115.68514 | 7426 ft | 131 kts | 91° |
| 2026-04-23 23:11 | 33.62687 | -115.67418 | 7427 ft | 131 kts | 91° |
| 2026-04-23 23:11 | 33.62683 | -115.66335 | 7426 ft | 131 kts | 91° |
| 2026-04-23 23:12 | 33.62677 | -115.65242 | 7427 ft | 131 kts | 91° |
| 2026-04-23 23:12 | 33.62672 | -115.64146 | 7426 ft | 131 kts | 91° |
| 2026-04-23 23:12 | 33.62667 | -115.63043 | 7426 ft | 131 kts | 91° |
| 2026-04-23 23:12 | 33.62663 | -115.61958 | 7426 ft | 131 kts | 91° |
| 2026-04-23 23:13 | 33.62658 | -115.60863 | 7426 ft | 131 kts | 91° |
| 2026-04-23 23:13 | 33.62652 | -115.59766 | 7426 ft | 131 kts | 91° |
| 2026-04-23 23:13 | 33.62647 | -115.58669 | 7426 ft | 131 kts | 91° |
| 2026-04-23 23:13 | 33.62642 | -115.57578 | 7427 ft | 131 kts | 91° |
| 2026-04-23 23:14 | 33.62636 | -115.56487 | 7426 ft | 131 kts | 91° |
| 2026-04-23 23:14 | 33.62630 | -115.55390 | 7426 ft | 131 kts | 91° |
| 2026-04-23 23:14 | 33.62624 | -115.54295 | 7426 ft | 131 kts | 91° |
| 2026-04-23 23:14 | 33.62618 | -115.53193 | 7426 ft | 131 kts | 91° |
| 2026-04-23 23:15 | 33.62612 | -115.52103 | 7426 ft | 131 kts | 91° |
| 2026-04-23 23:15 | 33.62606 | -115.51005 | 7426 ft | 131 kts | 91° |
| 2026-04-23 23:15 | 33.62600 | -115.49920 | 7427 ft | 131 kts | 91° |
| 2026-04-23 23:15 | 33.62594 | -115.48814 | 7426 ft | 131 kts | 91° |
| 2026-04-23 23:16 | 33.62587 | -115.47725 | 7426 ft | 131 kts | 91° |
| 2026-04-23 23:16 | 33.62581 | -115.46630 | 7428 ft | 131 kts | 91° |
| 2026-04-23 23:16 | 33.62574 | -115.45531 | 7426 ft | 131 kts | 91° |
| 2026-04-23 23:16 | 33.62567 | -115.44423 | 7427 ft | 131 kts | 91° |
| 2026-04-23 23:17 | 33.62560 | -115.43328 | 7426 ft | 131 kts | 91° |
| 2026-04-23 23:17 | 33.62554 | -115.42234 | 7426 ft | 131 kts | 91° |
| 2026-04-23 23:17 | 33.62546 | -115.41140 | 7426 ft | 131 kts | 91° |
| 2026-04-23 23:17 | 33.62539 | -115.40037 | 7426 ft | 131 kts | 91° |
| 2026-04-23 23:18 | 33.62532 | -115.38929 | 7426 ft | 131 kts | 91° |
| 2026-04-23 23:18 | 33.62525 | -115.37837 | 7426 ft | 131 kts | 91° |
| 2026-04-23 23:18 | 33.62518 | -115.36745 | 7426 ft | 131 kts | 91° |
| 2026-04-23 23:18 | 33.62510 | -115.35641 | 7427 ft | 131 kts | 91° |
| 2026-04-23 23:19 | 33.62503 | -115.34578 | 7426 ft | 131 kts | 92° |
| 2026-04-23 23:19 | 33.62496 | -115.33485 | 7426 ft | 132 kts | 92° |
| 2026-04-23 23:19 | 33.62488 | -115.32388 | 7427 ft | 132 kts | 92° |
| 2026-04-23 23:19 | 33.62480 | -115.31284 | 7427 ft | 132 kts | 92° |
| 2026-04-23 23:20 | 33.62472 | -115.30183 | 7427 ft | 132 kts | 92° |
| 2026-04-23 23:20 | 33.62465 | -115.29074 | 7427 ft | 132 kts | 92° |
| 2026-04-23 23:20 | 33.62458 | -115.27979 | 7426 ft | 132 kts | 92° |
| 2026-04-23 23:20 | 33.62451 | -115.26870 | 7428 ft | 132 kts | 92° |
| 2026-04-23 23:21 | 33.62443 | -115.25769 | 7426 ft | 132 kts | 92° |
| 2026-04-23 23:21 | 33.62435 | -115.24654 | 7426 ft | 132 kts | 92° |
| 2026-04-23 23:21 | 33.62426 | -115.23557 | 7426 ft | 132 kts | 92° |
| 2026-04-23 23:21 | 33.62418 | -115.22447 | 7428 ft | 132 kts | 92° |
| 2026-04-23 23:22 | 33.62409 | -115.21347 | 7426 ft | 132 kts | 92° |
| 2026-04-23 23:22 | 33.62400 | -115.20235 | 7426 ft | 132 kts | 92° |
| 2026-04-23 23:22 | 33.62391 | -115.19132 | 7427 ft | 132 kts | 92° |
| 2026-04-23 23:22 | 33.62382 | -115.18038 | 7425 ft | 132 kts | 92° |
| 2026-04-23 23:23 | 33.62373 | -115.16933 | 7424 ft | 132 kts | 92° |
| 2026-04-23 23:23 | 33.62363 | -115.15820 | 7422 ft | 132 kts | 92° |
| 2026-04-23 23:23 | 33.62354 | -115.14712 | 7421 ft | 133 kts | 92° |
| 2026-04-23 23:23 | 33.62344 | -115.13605 | 7421 ft | 132 kts | 92° |
| 2026-04-23 23:24 | 33.62334 | -115.12496 | 7408 ft | 133 kts | 92° |
| 2026-04-23 23:24 | 33.62323 | -115.11375 | 7281 ft | 134 kts | 92° |
| 2026-04-23 23:24 | 33.62315 | -115.10269 | 7151 ft | 130 kts | 92° |
| 2026-04-23 23:24 | 33.62306 | -115.09200 | 7024 ft | 128 kts | 92° |
| 2026-04-23 23:25 | 33.62297 | -115.08148 | 6897 ft | 125 kts | 92° |
| 2026-04-23 23:25 | 33.62288 | -115.07109 | 6770 ft | 124 kts | 92° |
| 2026-04-23 23:25 | 33.62278 | -115.06072 | 6643 ft | 122 kts | 92° |
| 2026-04-23 23:25 | 33.62269 | -115.05052 | 6517 ft | 122 kts | 92° |
| 2026-04-23 23:26 | 33.62258 | -115.04042 | 6392 ft | 121 kts | 92° |
| 2026-04-23 23:26 | 33.62249 | -115.03023 | 6267 ft | 121 kts | 92° |
| 2026-04-23 23:26 | 33.62240 | -115.02007 | 6142 ft | 121 kts | 92° |
| 2026-04-23 23:26 | 33.62231 | -115.01003 | 6018 ft | 121 kts | 92° |
| 2026-04-23 23:27 | 33.62221 | -114.99982 | 5892 ft | 121 kts | 92° |
| 2026-04-23 23:27 | 33.62211 | -114.98973 | 5767 ft | 121 kts | 92° |
| 2026-04-23 23:27 | 33.62201 | -114.97971 | 5644 ft | 121 kts | 92° |
| 2026-04-23 23:27 | 33.62192 | -114.96952 | 5518 ft | 121 kts | 92° |
| 2026-04-23 23:28 | 33.62180 | -114.95951 | 5394 ft | 121 kts | 91° |
| 2026-04-23 23:28 | 33.62170 | -114.94939 | 5268 ft | 121 kts | 91° |
| 2026-04-23 23:28 | 33.62160 | -114.93933 | 5144 ft | 121 kts | 91° |
| 2026-04-23 23:28 | 33.62150 | -114.92916 | 5019 ft | 121 kts | 91° |
| 2026-04-23 23:29 | 33.62139 | -114.91916 | 4907 ft | 120 kts | 91° |
| 2026-04-23 23:29 | 33.62130 | -114.90925 | 4821 ft | 118 kts | 91° |
| 2026-04-23 23:29 | 33.62119 | -114.89946 | 4700 ft | 119 kts | 91° |
| 2026-04-23 23:29 | 33.62109 | -114.88939 | 4574 ft | 119 kts | 91° |
| 2026-04-23 23:30 | 33.62098 | -114.87954 | 4448 ft | 118 kts | 91° |
| 2026-04-23 23:30 | 33.62087 | -114.86970 | 4321 ft | 117 kts | 91° |
| 2026-04-23 23:30 | 33.62076 | -114.86022 | 4168 ft | 117 kts | 91° |
| 2026-04-23 23:30 | 33.62034 | -114.85057 | 3883 ft | 120 kts | 96° |
| 2026-04-23 23:31 | 33.61939 | -114.84056 | 3548 ft | 121 kts | 97° |
| 2026-04-23 23:31 | 33.61833 | -114.83064 | 3215 ft | 121 kts | 96° |
| 2026-04-23 23:31 | 33.61764 | -114.82070 | 2912 ft | 117 kts | 94° |
| 2026-04-23 23:31 | 33.61715 | -114.81103 | 2585 ft | 117 kts | 91° |
| 2026-04-23 23:32 | 33.61713 | -114.80172 | 2420 ft | 101 kts | 91° |
| 2026-04-23 23:32 | 33.61702 | -114.79389 | 2202 ft | 91 kts | 90° |
| 2026-04-23 23:32 | 33.61687 | -114.78648 | 1950 ft | 89 kts | 92° |
| 2026-04-23 23:32 | 33.61706 | -114.77930 | 1750 ft | 83 kts | 88° |
| 2026-04-23 23:33 | 33.61724 | -114.77248 | 1513 ft | 81 kts | 92° |
| 2026-04-23 23:33 | 33.61708 | -114.76588 | 1319 ft | 78 kts | 95° |
| 2026-04-23 23:33 | 33.61684 | -114.75954 | 1133 ft | 76 kts | 92° |
| 2026-04-23 23:33 | 33.61673 | -114.75319 | 1017 ft | 74 kts | 91° |
| 2026-04-23 23:34 | 33.61666 | -114.74713 | 912 ft | 74 kts | 90° |
| 2026-04-23 23:34 | 33.61678 | -114.74056 | 732 ft | 81 kts | 91° |
| 2026-04-23 23:34 | 33.61666 | -114.73385 | 539 ft | 79 kts | 91° |
| 2026-04-23 23:34 | 33.61662 | -114.72741 | 403 ft | 75 kts | 90° |
| 2026-04-23 23:35 | 33.61660 | -114.72211 | 394 ft | 51 kts | 89° |
| 2026-04-23 23:35 | 33.61657 | -114.71849 | 393 ft | 35 kts | 91° |
| 2026-04-23 23:35 | 33.61656 | -114.71624 | 393 ft | 23 kts | 89° |
| 2026-04-23 23:35 | 33.61597 | -114.71516 | 393 ft | 14 kts | 180° |
| 2026-04-23 23:36 | 33.61559 | -114.71515 | 393 ft | 0 kts | 181° |
| 2026-04-23 23:36 | 33.61557 | -114.71515 | 393 ft | 1 kts | 181° |
| 2026-04-23 23:36 | 33.61531 | -114.71516 | 393 ft | 6 kts | 179° |
| 2026-04-23 23:37 | 33.61516 | -114.71443 | 393 ft | 13 kts | 90° |
| 2026-04-23 23:37 | 33.61465 | -114.71344 | 393 ft | 15 kts | 148° |
| 2026-04-23 23:37 | 33.61440 | -114.71295 | 392 ft | 2 kts | 359° |